Time;durP1;ratioP1;P1;durP2;ratioP2;P2;SDS_P1;SDS_P2;PMS_P1;PMS_P2;Temp;Humidity;BMP_temperature;BMP_pressure;BME280_temperature;BME280_humidity;BME280_pressure;Samples;Min_cycle;Max_cycle;Signal;HPM_P1;HPM_P2
2021/10/09 00:00:43;;;;;;;16.82;5.95;;;;;;;0.88;55.47;102885.00;1723557;83;21140;-60
2021/10/09 00:03:18;;;;;;;11.75;4.30;;;;;;;0.84;55.44;102885.86;1723460;83;21774;-60
2021/10/09 00:05:53;;;;;;;8.00;4.08;;;;;;;0.82;55.63;102881.16;1723822;83;21243;-60
2021/10/09 00:08:32;;;;;;;12.50;4.67;;;;;;;0.79;55.72;102885.90;1723416;83;21298;-61
2021/10/09 00:11:17;;;;;;;9.50;4.30;;;;;;;0.78;55.70;102884.20;1723668;83;21652;-60
2021/10/09 00:13:49;;;;;;;6.28;3.37;;;;;;;0.76;55.60;102882.50;1723270;83;21289;-61
2021/10/09 00:16:26;;;;;;;9.78;3.65;;;;;;;0.73;55.42;102884.66;1723580;83;21290;-60
2021/10/09 00:19:01;;;;;;;7.75;4.15;;;;;;;0.70;55.32;102884.67;1723098;83;21824;-61
2021/10/09 00:21:44;;;;;;;8.15;3.52;;;;;;;0.67;55.41;102890.70;1723598;83;21254;-60
2021/10/09 00:24:20;;;;;;;18.07;4.70;;;;;;;0.65;55.51;102892.44;1723410;83;22089;-60
2021/10/09 00:26:56;;;;;;;15.05;4.65;;;;;;;0.64;55.63;102892.03;1724066;83;21183;-60
2021/10/09 00:29:33;;;;;;;14.05;5.37;;;;;;;0.63;55.79;102894.17;1722722;83;21188;-60
2021/10/09 00:32:07;;;;;;;11.85;4.85;;;;;;;0.62;55.85;102889.05;1723572;83;21251;-61
2021/10/09 00:34:40;;;;;;;13.28;5.28;;;;;;;0.61;55.63;102895.05;1723355;83;21797;-60
2021/10/09 00:37:16;;;;;;;14.43;5.95;;;;;;;0.58;55.98;102893.77;1723494;83;21243;-60
2021/10/09 00:39:51;;;;;;;11.22;5.55;;;;;;;0.56;55.97;102888.63;1722746;83;21487;-60
2021/10/09 00:42:27;;;;;;;16.00;5.77;;;;;;;0.56;56.05;102892.93;1724020;83;21263;-61
2021/10/09 00:45:06;;;;;;;14.87;6.58;;;;;;;0.54;55.99;102887.80;1722275;83;21183;-60
2021/10/09 00:47:42;;;;;;;13.13;5.10;;;;;;;0.51;55.98;102894.25;1722767;83;21624;-60
2021/10/09 00:50:16;;;;;;;14.13;4.95;;;;;;;0.49;56.09;102895.98;1721444;83;21206;-60
2021/10/09 00:52:53;;;;;;;11.05;4.60;;;;;;;0.44;56.01;102887.41;1693534;83;21180;-60
2021/10/09 00:55:30;;;;;;;8.30;4.47;;;;;;;0.42;56.05;102893.44;1723146;83;21278;-60
2021/10/09 00:58:05;;;;;;;12.47;4.90;;;;;;;0.38;55.98;102887.88;1723549;83;21156;-60
2021/10/09 01:00:43;;;;;;;11.80;4.58;;;;;;;0.36;56.24;102893.02;1722335;83;21286;-61
2021/10/09 01:03:20;;;;;;;9.90;3.58;;;;;;;0.33;56.28;102898.22;1699164;83;21294;-61
2021/10/09 01:05:58;;;;;;;11.85;4.37;;;;;;;0.32;56.40;102897.78;1722802;83;21285;-60
2021/10/09 01:08:33;;;;;;;8.03;3.87;;;;;;;0.31;56.38;102894.77;1722024;83;21282;-61
2021/10/09 01:11:09;;;;;;;10.40;3.75;;;;;;;0.31;56.27;102890.90;1722405;83;21286;-60
2021/10/09 01:13:44;;;;;;;7.85;3.72;;;;;;;0.30;56.33;102892.20;1720766;83;21132;-60
2021/10/09 01:16:27;;;;;;;6.95;3.87;;;;;;;0.29;56.53;102887.91;1722790;83;21314;-60
2021/10/09 01:19:02;;;;;;;8.38;4.12;;;;;;;0.27;56.68;102886.63;1723323;83;21314;-60
2021/10/09 01:21:46;;;;;;;8.65;4.05;;;;;;;0.24;56.68;102887.93;1722268;83;21246;-60
2021/10/09 01:24:30;;;;;;;8.08;4.15;;;;;;;0.22;56.82;102886.22;1722575;83;21262;-60
2021/10/09 01:27:05;;;;;;;10.88;5.45;;;;;;;0.20;56.94;102877.22;1722346;83;21333;-61
2021/10/09 01:29:42;;;;;;;6.17;3.30;;;;;;;0.18;56.76;102884.53;1692432;83;21699;-61
2021/10/09 01:32:18;;;;;;;9.13;3.45;;;;;;;0.14;56.80;102883.70;1721855;83;21728;-61
2021/10/09 01:34:57;;;;;;;7.25;3.15;;;;;;;0.12;57.06;102878.13;1723690;83;21289;-61
2021/10/09 01:37:46;;;;;;;6.47;3.42;;;;;;;0.10;57.01;102880.69;1723728;83;21139;-61
2021/10/09 01:40:20;;;;;;;8.13;3.80;;;;;;;0.08;57.14;102876.41;1723145;83;21279;-61
2021/10/09 01:42:55;;;;;;;13.98;3.67;;;;;;;0.05;57.20;102883.72;1721810;83;21671;-61
2021/10/09 01:45:30;;;;;;;7.15;3.55;;;;;;;0.03;57.22;102880.30;1723907;83;21168;-61
2021/10/09 01:48:05;;;;;;;7.37;3.40;;;;;;;0.01;57.29;102880.73;1722356;83;21214;-61
2021/10/09 01:50:42;;;;;;;6.72;3.27;;;;;;;-0.01;57.26;102887.19;1721727;83;21163;-61
2021/10/09 01:53:18;;;;;;;9.38;3.40;;;;;;;-0.02;57.28;102879.03;1723686;83;21314;-61
2021/10/09 01:55:52;;;;;;;15.38;3.52;;;;;;;-0.04;57.14;102878.18;1723414;83;21278;-60
2021/10/09 01:58:28;;;;;;;6.92;3.02;;;;;;;-0.05;57.18;102879.03;1723749;83;21156;-61
2021/10/09 02:01:06;;;;;;;7.28;3.40;;;;;;;-0.05;57.20;102879.48;1723087;83;21179;-61
2021/10/09 02:03:47;;;;;;;6.67;2.90;;;;;;;-0.11;56.95;102874.34;1724223;83;21144;-62
2021/10/09 02:06:23;;;;;;;6.30;3.55;;;;;;;-0.18;57.17;102870.08;1723316;83;21378;-61
2021/10/09 02:09:01;;;;;;;6.97;3.08;;;;;;;-0.23;57.18;102874.37;1723383;83;21345;-61
2021/10/09 02:11:38;;;;;;;12.35;4.03;;;;;;;-0.34;57.25;102874.42;1722527;83;21289;-61
2021/10/09 02:14:33;;;;;;;7.15;3.87;;;;;;;-0.43;57.58;102869.72;1721980;83;21670;-61
2021/10/09 02:17:31;;;;;;;5.40;2.98;;;;;;;-0.46;57.88;102877.02;1722757;83;21297;-61
2021/10/09 02:25:48;;;;;;;6.87;2.77;;;;;;;-0.50;58.29;102883.01;1723625;83;21299;-61
2021/10/09 02:28:23;;;;;;;7.33;2.83;;;;;;;-0.46;58.41;102883.87;1723693;83;21858;-61
2021/10/09 02:30:58;;;;;;;7.75;2.90;;;;;;;-0.45;58.42;102877.85;1723194;83;21333;-61
2021/10/09 02:33:38;;;;;;;22.07;7.47;;;;;;;-0.43;58.51;102876.16;1723751;83;21683;-61
2021/10/09 02:36:15;;;;;;;102.85;25.27;;;;;;;-0.41;58.28;102879.16;1690088;85;21169;-61
2021/10/09 02:38:49;;;;;;;166.68;38.65;;;;;;;-0.40;58.32;102876.99;1704783;84;21313;-61
2021/10/09 02:41:24;;;;;;;235.00;55.73;;;;;;;-0.40;58.38;102871.84;1721485;83;21305;-61
2021/10/09 02:43:59;;;;;;;124.42;31.87;;;;;;;-0.39;58.33;102867.56;1704765;84;21184;-61
2021/10/09 02:46:41;;;;;;;89.80;20.15;;;;;;;-0.40;58.24;102870.56;1721792;83;21164;-61
2021/10/09 02:49:18;;;;;;;42.58;10.70;;;;;;;-0.42;58.39;102867.13;1704785;84;21310;-61
2021/10/09 02:51:59;;;;;;;19.45;6.47;;;;;;;-0.45;58.33;102865.84;1721509;83;21293;-60
2021/10/09 02:54:34;;;;;;;17.70;5.67;;;;;;;-0.47;58.45;102869.28;1690085;85;21727;-61
2021/10/09 02:57:09;;;;;;;11.22;3.70;;;;;;;-0.50;58.39;102862.88;1721718;83;21392;-60
2021/10/09 02:59:45;;;;;;;12.20;5.15;;;;;;;-0.57;58.61;102868.44;1691765;85;21259;-60
2021/10/09 03:02:20;;;;;;;7.45;3.87;;;;;;;-0.59;58.71;102864.16;1721438;83;21361;-60
2021/10/09 03:04:57;;;;;;;8.85;3.40;;;;;;;-0.61;58.89;102867.16;1692021;85;21283;-60
2021/10/09 03:07:33;;;;;;;9.48;3.52;;;;;;;-0.62;58.94;102864.18;1721862;83;21179;-60
2021/10/09 03:10:12;;;;;;;7.08;3.62;;;;;;;-0.64;58.75;102864.62;1691444;85;21336;-60
2021/10/09 03:12:47;;;;;;;6.75;3.55;;;;;;;-0.69;58.73;102865.88;1721040;83;21286;-60
2021/10/09 03:15:29;;;;;;;45.33;13.10;;;;;;;-0.72;58.95;102865.91;1691782;85;21287;-60
2021/10/09 03:18:03;;;;;;;120.10;32.98;;;;;;;-0.77;58.88;102866.34;1704380;84;21318;-60
2021/10/09 03:20:43;;;;;;;126.27;34.90;;;;;;;-0.83;59.09;102874.91;1722209;83;21266;-60
2021/10/09 03:23:25;;;;;;;42.15;13.40;;;;;;;-0.83;59.33;102876.61;1703459;84;21345;-60
2021/10/09 03:26:00;;;;;;;18.95;5.05;;;;;;;-0.83;59.58;102870.18;1722230;83;21323;-60
2021/10/09 03:28:40;;;;;;;13.38;3.70;;;;;;;-0.82;59.53;102867.63;1691031;85;21295;-59
2021/10/09 03:31:15;;;;;;;10.15;4.22;;;;;;;-0.81;59.32;102879.61;1719809;83;21156;-60
2021/10/09 03:33:50;;;;;;;11.22;3.83;;;;;;;-0.83;59.36;102875.33;1691031;85;21346;-59
2021/10/09 03:36:29;;;;;;;9.15;2.95;;;;;;;-0.83;59.50;102869.76;1722336;83;21156;-59
2021/10/09 03:39:10;;;;;;;9.85;3.10;;;;;;;-0.81;59.46;102871.03;1692496;83;21274;-60
2021/10/09 03:41:53;;;;;;;6.85;3.05;;;;;;;-0.77;59.43;102876.20;1723773;83;21132;-60
2021/10/09 03:44:20;;;;;;;10.13;3.35;;;;;;;-0.71;59.30;102876.61;1721531;83;21305;-60
2021/10/09 03:47:17;;;;;;;7.67;3.08;;;;;;;-0.71;59.15;102873.61;1723420;83;21184;-60
2021/10/09 03:49:58;;;;;;;10.13;3.45;;;;;;;-0.69;59.12;102869.73;1718835;83;21373;-60
2021/10/09 03:52:41;;;;;;;8.70;3.40;;;;;;;-0.63;59.15;102866.31;1722746;83;21283;-60
2021/10/09 03:55:20;;;;;;;11.83;3.75;;;;;;;-0.54;59.16;102867.58;1721828;83;21710;-60
2021/10/09 03:57:55;;;;;;;7.72;3.45;;;;;;;-0.47;58.87;102862.84;1723908;83;21813;-60
2021/10/09 04:00:40;;;;;;;8.08;3.90;;;;;;;-0.38;58.70;102868.00;1722258;83;21730;-60
2021/10/09 04:03:16;;;;;;;9.35;3.30;;;;;;;-0.29;58.67;102861.11;1722258;83;21314;-60
2021/10/09 04:05:50;;;;;;;4.65;2.67;;;;;;;-0.13;58.50;102867.05;1723915;83;21179;-60
2021/10/09 04:08:28;;;;;;;11.45;3.12;;;;;;;0.25;58.22;102861.31;1723653;83;21282;-60
2021/10/09 04:11:01;;;;;;;7.22;3.37;;;;;;;1.04;57.11;102860.36;1723748;83;21147;-61
2021/10/09 04:13:34;;;;;;;;;;;;;;;1.89;55.50;102860.36;1725261;83;21337;-60
2021/10/09 04:16:09;;;;;;;;;;;;;;;2.92;53.86;102851.59;1726013;83;20181;-61
2021/10/09 04:18:42;;;;;;;10.00;3.87;;;;;;;3.93;51.62;102855.80;1723487;83;20257;-62
2021/10/09 04:21:19;;;;;;;7.35;3.72;;;;;;;4.88;49.46;102855.41;1724029;83;21152;-63
2021/10/09 04:24:02;;;;;;;6.92;3.50;;;;;;;5.74;47.13;102857.05;1722898;83;21171;-63
2021/10/09 04:26:33;;;;;;;8.68;3.85;;;;;;;6.59;45.13;102856.72;1724003;83;21246;-64
2021/10/09 04:29:10;;;;;;;8.53;3.90;;;;;;;7.36;43.28;102858.08;1723015;83;21726;-64
2021/10/09 04:31:46;;;;;;;9.43;3.30;;;;;;;8.13;41.59;102859.66;1723655;83;21263;-64
2021/10/09 04:34:19;;;;;;;8.10;3.35;;;;;;;8.83;40.03;102861.73;1722132;83;21227;-65
2021/10/09 04:36:53;;;;;;;6.65;3.08;;;;;;;9.52;38.63;102857.94;1723392;83;21346;-64
2021/10/09 04:39:34;;;;;;;5.75;3.47;;;;;;;10.20;37.18;102865.83;1723078;83;21240;-65
2021/10/09 04:42:12;;;;;;;7.58;3.22;;;;;;;10.83;35.83;102864.09;1723650;83;21140;-65
2021/10/09 04:44:47;;;;;;;5.35;3.30;;;;;;;11.43;34.57;102870.69;1722670;83;21279;-65
2021/10/09 04:47:23;;;;;;;8.13;3.27;;;;;;;11.91;33.43;102869.95;1722644;83;21360;-64
2021/10/09 04:49:58;;;;;;;5.83;2.98;;;;;;;12.45;32.44;102874.83;1720218;83;21255;-65
2021/10/09 04:52:32;;;;;;;4.20;2.77;;;;;;;13.01;31.50;102863.76;1717726;83;21172;-66
2021/10/09 04:55:07;;;;;;;;;;;;;;;13.58;30.82;102873.13;1720913;83;21786;-66
2021/10/09 04:57:45;;;;;;;10.10;5.78;;;;;;;14.14;29.89;102871.34;1722397;83;20231;-66
2021/10/09 05:00:23;;;;;;;14.87;6.08;;;;;;;14.59;29.08;102871.56;1720948;83;21394;-65
2021/10/09 05:03:00;;;;;;;10.30;6.47;;;;;;;15.09;28.21;102874.02;1720414;83;21159;-66
2021/10/09 05:05:42;;;;;;;17.52;8.80;;;;;;;15.61;27.51;102880.63;1721186;83;21825;-65
2021/10/09 05:08:20;;;;;;;18.60;11.28;;;;;;;16.12;26.71;102885.76;1721892;83;21758;-66
2021/10/09 05:10:57;;;;;;;27.65;16.17;;;;;;;16.60;26.07;102881.44;1720957;83;21877;-66
2021/10/09 05:13:34;;;;;;;32.73;18.15;;;;;;;17.10;25.42;102876.38;1722277;83;21779;-66
2021/10/09 05:16:17;;;;;;;15.30;10.75;;;;;;;17.60;24.82;102873.87;1720405;83;21240;-66
2021/10/09 05:18:56;;;;;;;10.53;6.15;;;;;;;18.06;24.20;102884.39;1722057;83;21266;-64
2021/10/09 05:21:29;;;;;;;8.55;4.20;;;;;;;18.58;23.43;102881.13;1722393;83;21259;-64
2021/10/09 05:24:03;;;;;;;9.83;4.78;;;;;;;18.95;22.98;102874.47;1720873;83;21266;-64
2021/10/09 05:26:38;;;;;;;8.05;5.72;;;;;;;19.34;22.58;102876.46;1722067;83;21802;-65
2021/10/09 05:29:16;;;;;;;7.20;4.83;;;;;;;19.77;21.95;102883.45;1721935;83;21806;-65
2021/10/09 05:32:02;;;;;;;11.05;3.55;;;;;;;20.15;21.94;102884.94;1722273;83;21303;-65
2021/10/09 05:34:32;;;;;;;12.70;4.25;;;;;;;20.59;21.35;102891.17;1721477;83;21274;-65
2021/10/09 05:37:10;;;;;;;9.58;4.37;;;;;;;21.05;20.93;102881.70;1720015;83;21322;-65
2021/10/09 05:39:46;;;;;;;5.33;2.87;;;;;;;21.44;20.42;102880.20;1690351;85;21314;-65
2021/10/09 05:42:22;;;;;;;5.33;2.55;;;;;;;21.82;19.81;102878.39;1706617;84;21196;-65
2021/10/09 05:44:57;;;;;;;18.17;6.35;;;;;;;22.16;18.98;102882.70;1675207;85;21175;-65
2021/10/09 05:47:37;;;;;;;19.15;8.53;;;;;;;22.17;18.58;102881.21;1704403;83;21156;-64
2021/10/09 05:50:12;;;;;;;18.67;6.58;;;;;;;22.19;18.34;102881.90;1679531;85;21289;-65
2021/10/09 05:55:49;;;;;;;6.67;2.55;;;;;;;22.33;17.92;102876.58;1707297;84;21344;-64
2021/10/09 05:58:20;;;;;;;13.08;4.10;;;;;;;22.35;17.79;102876.77;1687999;85;21279;-64
2021/10/09 06:37:24;;;;;;;5.20;1.90;;;;;;;25.27;15.34;102854.95;1706986;84;21259;-63
2021/10/09 06:43:54;;;;;;;4.72;1.90;;;;;;;25.52;14.54;102850.42;1718385;83;21357;-66
2021/10/09 06:46:35;;;;;;;4.95;1.72;;;;;;;25.50;14.43;102850.27;1714196;83;21211;-64
2021/10/09 07:00:28;;;;;;;17.92;5.80;;;;;;;25.85;14.33;102840.41;1716493;83;21465;-65
2021/10/09 07:03:03;;;;;;;8.53;3.85;;;;;;;25.95;13.98;102841.89;1717175;83;21206;-65
2021/10/09 07:05:42;;;;;;;9.50;4.33;;;;;;;25.79;13.97;102837.10;1717882;83;21733;-65
2021/10/09 07:08:19;;;;;;;5.30;2.80;;;;;;;25.63;14.22;102835.30;1717038;83;21160;-65
2021/10/09 07:11:03;;;;;;;6.75;1.82;;;;;;;25.70;14.04;102828.75;1716291;82;21183;-64
2021/10/09 07:13:38;;;;;;;10.82;5.83;;;;;;;25.64;14.14;102835.64;1716583;83;22017;-64
2021/10/09 07:16:11;;;;;;;10.82;2.12;;;;;;;25.31;14.29;102827.31;1716962;82;21995;-64
2021/10/09 07:18:48;;;;;;;9.10;4.20;;;;;;;25.21;14.67;102815.92;1717122;82;21207;-64
2021/10/09 07:21:21;;;;;;;4.95;2.60;;;;;;;25.50;14.54;102824.28;1718052;83;22025;-63
2021/10/09 07:23:56;;;;;;;28.10;3.02;;;;;;;25.82;13.91;102819.28;1717125;83;21211;-64
2021/10/09 07:26:28;;;;;;;;;;;;;;;25.55;13.94;102822.42;1719147;83;22056;-63
2021/10/09 07:29:02;;;;;;;;;;;;;;;25.07;14.06;102825.50;1719034;83;20352;-62
2021/10/09 07:31:36;;;;;;;2.13;1.90;;;;;;;24.52;14.42;102814.58;1715970;83;20253;-64
2021/10/09 07:34:10;;;;;;;4.33;1.90;;;;;;;24.12;14.75;102818.52;1714251;83;21322;-65
2021/10/09 07:36:45;;;;;;;2.12;1.70;;;;;;;24.27;14.98;102808.83;1714077;83;21357;-66
2021/10/09 07:43:33;;;;;;;5.17;1.85;;;;;;;24.77;14.66;102806.07;1715736;83;22053;-63
2021/10/09 07:46:10;;;;;;;7.92;2.05;;;;;;;24.65;14.69;102798.00;1685383;85;21207;-66
2021/10/09 07:48:47;;;;;;;2.45;1.60;;;;;;;24.66;14.59;102801.02;1714219;83;21183;-65
2021/10/09 07:51:23;;;;;;;10.03;3.20;;;;;;;24.77;14.73;102794.55;1686192;85;21208;-67
2021/10/09 07:54:00;;;;;;;14.83;2.25;;;;;;;25.16;14.60;102793.66;1714838;83;21223;-67
2021/10/09 07:56:33;;;;;;;8.33;2.55;;;;;;;25.45;14.23;102779.70;1668486;86;21350;-68
2021/10/09 07:59:06;;;;;;;3.95;1.70;;;;;;;25.61;13.96;102789.03;1697292;84;21263;-65
2021/10/09 08:01:40;;;;;;;6.12;1.90;;;;;;;25.49;13.79;102773.47;1715981;83;21180;-66
2021/10/09 08:04:16;;;;;;;5.45;1.70;;;;;;;25.39;13.93;102791.91;1685696;85;21558;-65
2021/10/09 08:06:49;;;;;;;8.00;1.60;;;;;;;25.13;13.45;102791.31;1715229;83;21212;-66
2021/10/09 08:09:29;;;;;;;8.15;1.95;;;;;;;24.36;13.83;102801.14;1685919;85;21235;-63
2021/10/09 08:16:11;;;;;;;15.20;4.22;;;;;;;23.47;15.10;102781.27;1685734;85;22004;-65
2021/10/09 08:18:48;;;;;;;8.80;2.50;;;;;;;23.76;14.44;102779.55;1715131;83;21281;-66
2021/10/09 08:21:25;;;;;;;4.03;2.02;;;;;;;23.94;14.20;102783.80;1685898;85;21251;-67
2021/10/09 08:24:19;;;;;;;8.85;1.95;;;;;;;24.09;14.21;102771.50;1715114;83;22108;-63
2021/10/09 08:27:03;;;;;;;23.05;4.97;;;;;;;24.12;14.15;102774.85;1657867;85;22030;-66
2021/10/09 08:41:00;;;;;;;5.47;2.20;;;;;;;23.25;14.24;102776.42;1702782;83;21223;-64
2021/10/09 08:43:34;;;;;;;2.58;1.70;;;;;;;22.87;14.58;102766.14;1720580;83;21317;-66
2021/10/09 08:46:07;;;;;;;6.70;1.87;;;;;;;22.56;14.99;102781.22;1721824;83;21175;-65
2021/10/09 08:48:47;;;;;;;6.95;1.77;;;;;;;22.38;14.91;102777.70;1721118;83;21313;-64
2021/10/09 08:51:26;;;;;;;7.08;1.80;;;;;;;22.21;15.30;102772.37;1721764;83;21179;-64
2021/10/09 08:54:10;;;;;;;2.20;1.62;;;;;;;22.22;15.63;102768.69;1720810;83;21587;-65
2021/10/09 08:56:48;;;;;;;2.55;1.35;;;;;;;22.31;15.38;102784.63;1720329;83;21242;-66
2021/10/09 08:59:31;;;;;;;3.62;1.25;;;;;;;22.48;15.27;102769.13;1721041;83;21321;-64
2021/10/09 09:02:33;;;;;;;4.25;1.55;;;;;;;22.66;15.15;102770.49;1722099;83;21196;-64
2021/10/09 09:08:01;;;;;;;5.42;1.80;;;;;;;22.26;15.55;102771.42;1729435;83;21313;-64
2021/10/09 09:31:10;;;;;;;3.70;1.65;;;;;;;20.61;16.40;102744.14;1670774;86;21325;-65
2021/10/09 09:39:12;;;;;;;2.60;1.90;;;;;;;19.82;17.38;102745.66;1716467;83;22033;-66
2021/10/09 09:41:53;;;;;;;8.75;2.83;;;;;;;19.30;17.36;102731.58;1670997;86;21271;-64
2021/10/09 09:44:29;;;;;;;5.90;3.10;;;;;;;18.90;17.95;102727.16;1717206;83;21273;-65
2021/10/09 09:47:09;;;;;;;4.87;2.33;;;;;;;18.46;18.52;102722.45;1718714;83;21228;-64
2021/10/09 09:49:44;;;;;;;3.58;2.17;;;;;;;18.10;18.95;102726.80;1734404;82;21222;-65
2021/10/09 09:52:17;;;;;;;5.75;1.85;;;;;;;17.74;19.17;102716.52;1749231;82;21344;-65
2021/10/09 09:55:12;;;;;;;3.60;1.92;;;;;;;17.41;19.74;102708.09;1748442;82;21354;-65
2021/10/09 09:58:01;;;;;;;3.65;1.98;;;;;;;17.06;19.69;102721.89;1745203;82;21318;-64
2021/10/09 10:00:36;;;;;;;2.87;1.80;;;;;;;16.57;20.00;102730.94;1748031;82;21579;-63
2021/10/09 10:03:10;;;;;;;3.55;2.05;;;;;;;16.10;20.58;102711.94;1748717;82;21567;-64
2021/10/09 10:05:47;;;;;;;5.62;1.55;;;;;;;15.71;21.15;102718.80;1748009;82;21318;-63
2021/10/09 10:08:22;;;;;;;7.53;1.80;;;;;;;15.44;21.42;102714.99;1722615;82;21314;-62
2021/10/09 10:10:56;;;;;;;5.58;1.70;;;;;;;15.22;21.94;102710.80;1747338;82;21203;-63
2021/10/09 10:13:32;;;;;;;10.45;1.95;;;;;;;15.05;21.89;102710.27;1748959;82;21345;-62
2021/10/09 10:16:08;;;;;;;3.80;1.47;;;;;;;14.87;22.51;102711.54;1747230;80;21219;-62
2021/10/09 10:18:49;;;;;;;3.33;1.90;;;;;;;14.69;22.88;102698.64;1748358;82;21305;-62
2021/10/09 10:21:45;;;;;;;5.72;1.77;;;;;;;14.58;22.99;102714.81;1748019;80;21510;-62
2021/10/09 10:24:47;;;;;;;8.13;2.37;;;;;;;14.40;22.87;102693.15;1747444;82;21215;-61
2021/10/09 10:27:40;;;;;;;5.08;1.57;;;;;;;14.21;23.10;102696.59;1747703;82;21170;-63
2021/10/09 10:30:20;;;;;;;3.45;1.37;;;;;;;14.08;22.93;102705.79;1748577;82;21309;-64
2021/10/09 10:33:02;;;;;;;5.22;1.72;;;;;;;13.97;23.31;102689.81;1747327;82;21184;-62
2021/10/09 10:35:40;;;;;;;6.30;1.85;;;;;;;13.97;23.67;102677.14;1748185;80;21200;-62
2021/10/09 10:38:23;;;;;;;3.47;1.62;;;;;;;14.00;23.57;102686.99;1739465;82;22122;-62
2021/10/09 10:41:06;;;;;;;2.70;1.60;;;;;;;13.98;23.58;102675.72;1696085;84;21329;-65
2021/10/09 10:46:45;;;;;;;3.55;1.85;;;;;;;13.90;23.35;102681.12;1731967;82;21562;-62
2021/10/09 10:49:27;;;;;;;2.75;1.35;;;;;;;13.85;23.85;102679.25;1717152;83;21186;-62
2021/10/09 10:54:38;;;;;;;4.33;1.80;;;;;;;13.89;23.86;102676.78;1702171;83;21195;-63
2021/10/09 10:57:19;;;;;;;2.65;1.52;;;;;;;13.89;23.60;102672.83;1694871;83;21282;-63
2021/10/09 10:59:59;;;;;;;9.20;1.92;;;;;;;13.87;23.37;102676.04;1686488;85;21251;-63
2021/10/09 11:02:39;;;;;;;6.55;1.67;;;;;;;13.85;24.10;102664.27;1729558;82;21297;-63
2021/10/09 11:05:21;;;;;;;2.95;1.60;;;;;;;13.88;23.73;102660.13;1716030;83;21201;-63
2021/10/09 11:07:58;;;;;;;4.70;1.95;;;;;;;13.95;23.65;102673.27;1738545;82;21309;-63
2021/10/09 11:10:33;;;;;;;7.35;2.17;;;;;;;13.99;23.42;102668.20;1716204;82;21196;-64
2021/10/09 11:13:06;;;;;;;11.70;2.90;;;;;;;14.02;23.55;102668.45;1747654;82;21346;-61
2021/10/09 11:15:40;;;;;;;5.17;2.37;;;;;;;13.98;23.64;102661.70;1715828;83;22316;-62
2021/10/09 11:18:13;;;;;;;8.83;3.90;;;;;;;13.98;23.64;102661.70;1725064;82;21128;-62
2021/10/09 11:20:47;;;;;;;12.07;3.93;;;;;;;13.94;23.58;102654.48;1696706;83;21230;-62
2021/10/09 11:23:20;;;;;;;6.22;2.22;;;;;;;13.93;23.71;102662.00;1742279;82;21362;-63
2021/10/09 11:25:55;;;;;;;22.87;8.95;;;;;;;13.91;23.71;102659.94;1698260;83;21924;-63
2021/10/09 11:28:30;;;;;;;6.78;1.98;;;;;;;13.86;23.67;102660.70;1719791;82;21196;-62
2021/10/09 11:31:05;;;;;;;10.50;4.78;;;;;;;13.82;23.96;102648.70;1671432;84;21333;-64
2021/10/09 11:33:38;;;;;;;24.23;8.93;;;;;;;13.77;24.02;102649.45;1732158;82;21616;-62
2021/10/09 11:36:11;;;;;;;9.43;5.17;;;;;;;13.73;24.13;102650.58;1702184;83;21287;-64
2021/10/09 11:38:47;;;;;;;7.55;2.65;;;;;;;13.76;23.77;102650.39;1733088;82;21239;-64
2021/10/09 11:41:22;;;;;;;;;;;;;;;13.83;23.79;102642.47;1702649;83;21249;-64
2021/10/09 11:44:05;;;;;;;6.42;3.35;;;;;;;13.96;23.82;102641.20;1709269;83;20198;-64
2021/10/09 11:46:51;;;;;;;3.70;2.02;;;;;;;14.11;23.64;102645.48;1729743;80;21307;-63
2021/10/09 11:55:28;;;;;;;13.50;3.30;;;;;;;14.43;23.08;102635.44;1725364;81;21592;-61
2021/10/09 11:58:07;;;;;;;4.47;1.93;;;;;;;14.50;22.88;102642.84;1704028;84;21202;-60
2021/10/09 12:00:42;;;;;;;8.38;4.33;;;;;;;14.51;22.88;102635.31;1676881;84;21273;-62
2021/10/09 12:03:31;;;;;;;18.37;8.48;;;;;;;14.51;22.48;102626.09;1701920;84;21340;-61
2021/10/09 12:06:14;;;;;;;5.25;2.50;;;;;;;14.50;22.69;102628.34;1702996;84;21249;-61
2021/10/09 12:08:58;;;;;;;3.95;1.45;;;;;;;14.49;22.84;102620.55;1702781;84;21300;-61
2021/10/09 12:11:32;;;;;;;3.98;2.33;;;;;;;14.50;22.98;102626.17;1701747;84;21355;-62
2021/10/09 12:14:09;;;;;;;3.93;3.10;;;;;;;14.50;22.96;102627.02;1703372;84;21202;-64
2021/10/09 12:16:52;;;;;;;4.87;2.47;;;;;;;14.52;23.06;102613.27;1702985;84;21578;-61
2021/10/09 12:19:30;;;;;;;6.15;3.33;;;;;;;14.55;22.93;102622.75;1701745;84;21230;-62
2021/10/09 12:26:17;;;;;;;4.00;2.40;;;;;;;14.41;23.09;102621.06;1703095;84;21135;-61
2021/10/09 12:29:09;;;;;;;3.40;1.90;;;;;;;14.33;23.28;102610.68;1701614;84;21328;-62
2021/10/09 12:31:47;;;;;;;5.08;2.02;;;;;;;14.30;23.16;102617.44;1701825;84;21328;-62
2021/10/09 12:34:35;;;;;;;3.27;1.80;;;;;;;14.27;23.11;102616.31;1727755;82;21249;-61
2021/10/09 12:37:18;;;;;;;5.15;1.50;;;;;;;14.16;23.26;102619.18;1732146;82;21222;-65
2021/10/09 12:40:16;;;;;;;;;;;;;;;14.09;23.48;102607.86;1736665;82;21262;-62
2021/10/09 12:43:01;;;;;;;6.80;2.85;;;;;;;14.05;23.84;102608.52;1732348;82;20273;-63
2021/10/09 12:45:37;;;;;;;14.35;6.12;;;;;;;14.01;23.67;102604.88;1732392;82;21458;-64
2021/10/09 12:48:13;;;;;;;4.62;2.75;;;;;;;13.98;23.78;102605.92;1731739;82;21178;-64
2021/10/09 12:50:46;;;;;;;4.90;2.33;;;;;;;13.95;23.98;102603.95;1730247;82;22068;-62
2021/10/09 12:53:19;;;;;;;2.90;2.40;;;;;;;13.92;23.93;102595.78;1731367;82;21338;-62
2021/10/09 12:55:55;;;;;;;7.25;3.27;;;;;;;13.89;24.13;102596.00;1730259;82;22201;-63
2021/10/09 12:58:29;;;;;;;2.98;1.57;;;;;;;13.88;24.06;102592.13;1730656;82;21578;-64
2021/10/09 13:01:05;;;;;;;4.40;2.12;;;;;;;13.85;24.22;102593.17;1730493;82;21642;-63
2021/10/09 13:03:44;;;;;;;11.95;4.55;;;;;;;13.81;24.01;102593.02;1731087;82;21563;-62
2021/10/09 13:06:18;;;;;;;5.03;2.42;;;;;;;13.78;24.14;102589.75;1731219;82;21535;-63
2021/10/09 13:08:51;;;;;;;6.27;4.13;;;;;;;13.73;24.33;102600.55;1729122;82;21395;-62
2021/10/09 13:11:37;;;;;;;4.75;2.47;;;;;;;13.66;24.34;102600.58;1705904;82;22015;-62
2021/10/09 13:14:04;;;;;;;2.65;1.95;;;;;;;13.61;24.36;102595.27;1730157;82;21222;-62
2021/10/09 13:16:42;;;;;;;6.97;3.80;;;;;;;13.56;24.59;102591.62;1731800;82;21297;-61
2021/10/09 13:19:20;;;;;;;9.98;4.40;;;;;;;13.53;24.65;102589.17;1730293;82;21317;-61
2021/10/09 13:21:54;;;;;;;12.90;3.90;;;;;;;13.51;24.89;102592.37;1731258;82;21320;-60
2021/10/09 13:24:27;;;;;;;7.20;3.23;;;;;;;13.49;24.97;102582.43;1730972;82;22070;-61
2021/10/09 13:27:00;;;;;;;5.10;3.55;;;;;;;13.47;25.18;102585.60;1732175;82;21186;-63
2021/10/09 13:29:36;;;;;;;6.58;3.12;;;;;;;13.45;25.25;102586.17;1730572;82;22102;-61
2021/10/09 13:32:09;;;;;;;5.10;2.80;;;;;;;13.41;25.35;102582.91;1731357;82;21484;-61
2021/10/09 13:34:47;;;;;;;10.08;4.45;;;;;;;13.39;25.54;102583.95;1730507;82;21340;-60
2021/10/09 13:37:25;;;;;;;7.37;3.70;;;;;;;13.34;25.85;102587.34;1731907;82;21313;-60
2021/10/09 13:40:01;;;;;;;6.97;2.85;;;;;;;13.29;26.05;102589.41;1733652;82;21218;-60
2021/10/09 13:42:36;;;;;;;5.12;2.98;;;;;;;13.23;26.12;102577.48;1735033;82;21337;-61
2021/10/09 13:45:18;;;;;;;7.45;4.08;;;;;;;13.16;26.29;102583.25;1734561;82;21285;-60
2021/10/09 13:47:51;;;;;;;4.22;2.20;;;;;;;13.08;26.43;102581.56;1734578;82;21321;-61
2021/10/09 13:50:33;;;;;;;9.58;5.60;;;;;;;13.01;26.47;102585.48;1730020;82;21399;-62
2021/10/09 13:53:03;;;;;;;4.85;2.27;;;;;;;12.93;26.67;102584.64;1730070;82;21331;-60
2021/10/09 13:55:42;;;;;;;7.95;4.22;;;;;;;12.86;26.62;102582.02;1731447;82;21548;-61
2021/10/09 13:58:16;;;;;;;3.72;2.10;;;;;;;12.78;26.76;102579.00;1731204;82;21336;-62
2021/10/09 14:00:50;;;;;;;5.33;2.58;;;;;;;12.71;26.82;102576.37;1731312;82;22395;-61
2021/10/09 14:03:26;;;;;;;13.98;8.03;;;;;;;12.64;26.97;102579.00;1730143;82;21339;-60
2021/10/09 14:06:01;;;;;;;20.10;7.72;;;;;;;12.58;27.21;102578.07;1733761;82;21128;-60
2021/10/09 14:08:35;;;;;;;32.48;16.62;;;;;;;12.51;27.57;102580.69;1736947;82;21147;-60
2021/10/09 14:11:09;;;;;;;25.62;14.20;;;;;;;12.44;27.92;102580.69;1736424;82;21155;-62
2021/10/09 14:13:44;;;;;;;22.95;12.33;;;;;;;12.38;28.15;102574.47;1713090;82;21265;-60
2021/10/09 14:16:23;;;;;;;10.30;5.53;;;;;;;12.30;28.39;102574.91;1733641;82;21761;-60